PWSweather.com
Personal Weather Stations
Station Observations
K7AZM
Phoenix, AZ 85050

Phoenix, AZ 85050

Lat: 33.662, Lon: -112.019

Elevation: 1500

Station Type: Davis Vantage Vue

http://www.silhanek.com/weather

High Low Average
Temperature 77.0°F25.0°C 44.8°F7.1°C 61.7°F16.5°C
Dew Point 28.7°F-1.8°C 22.5°F-5.3°C 25.6°F-3.6°C
Winds 2.4 mph 3.9 kmh Calm Calm Calm SCalm S
Wind Gusts 8.0 mph12.9 kmh -- 2.0 mph3.2 kmh
Humidity 44% 15% 27%
Pressure 29.89 in1012.2 mb 29.69 in1005.4 mb -
Precipitation 0.00 in0.0 mm - -
Hour Temp Dew Point Humidity Winds Wind Gusts Pressure Precip Precip Rate Daily Precip Total
12:00 AM 52.8°F11.6°C 23.0°F-5.0°C 31% Calm Calm -- 29.88 in1011.9 mb 0.00 in0.0 mm 0.00 in0.0 mm 0.00 in0.0 mm
12:05 AM 52.6°F11.4°C 22.8°F-5.1°C 31% Calm Calm -- 29.89 in1012.2 mb 0.00 in0.0 mm 0.00 in0.0 mm 0.00 in0.0 mm
12:10 AM 52.4°F11.3°C 22.7°F-5.2°C 31% Calm Calm -- 29.88 in1011.9 mb 0.00 in0.0 mm 0.00 in0.0 mm 0.00 in0.0 mm
12:15 AM 52.3°F11.3°C 23.3°F-4.8°C 32% Calm Calm -- 29.88 in1011.9 mb 0.00 in0.0 mm 0.00 in0.0 mm 0.00 in0.0 mm
12:20 AM 52.2°F11.2°C 23.2°F-4.9°C 32% Calm Calm -- 29.88 in1011.9 mb 0.00 in0.0 mm 0.00 in0.0 mm 0.00 in0.0 mm
12:25 AM 52.0°F11.1°C 23.1°F-4.9°C 32% Calm Calm -- 29.89 in1012.2 mb 0.00 in0.0 mm 0.00 in0.0 mm 0.00 in0.0 mm
12:30 AM 52.1°F11.2°C 23.2°F-4.9°C 32% Calm Calm -- 29.89 in1012.2 mb 0.00 in0.0 mm 0.00 in0.0 mm 0.00 in0.0 mm
12:35 AM 52.2°F11.2°C 23.2°F-4.9°C 32% Calm Calm -- 29.89 in1012.2 mb 0.00 in0.0 mm 0.00 in0.0 mm 0.00 in0.0 mm
12:40 AM 52.2°F11.2°C 23.2°F-4.9°C 32% Calm Calm -- 29.89 in1012.2 mb 0.00 in0.0 mm 0.00 in0.0 mm 0.00 in0.0 mm
12:45 AM 52.4°F11.3°C 23.4°F-4.8°C 32% Calm Calm -- 29.89 in1012.2 mb 0.00 in0.0 mm 0.00 in0.0 mm 0.00 in0.0 mm
12:50 AM 52.3°F11.3°C 23.3°F-4.8°C 32% Calm Calm -- 29.89 in1012.2 mb 0.00 in0.0 mm 0.00 in0.0 mm 0.00 in0.0 mm
12:55 AM 52.0°F11.1°C 23.1°F-4.9°C 32% Calm Calm -- 29.89 in1012.2 mb 0.00 in0.0 mm 0.00 in0.0 mm 0.00 in0.0 mm
01:00 AM 51.9°F11.1°C 23.7°F-4.6°C 33% Calm Calm -- 29.89 in1012.2 mb 0.00 in0.0 mm 0.00 in0.0 mm 0.00 in0.0 mm
01:05 AM 51.8°F11.0°C 23.6°F-4.7°C 33% Calm Calm -- 29.89 in1012.2 mb 0.00 in0.0 mm 0.00 in0.0 mm 0.00 in0.0 mm
01:10 AM 51.6°F10.9°C 23.4°F-4.8°C 33% Calm Calm -- 29.89 in1012.2 mb 0.00 in0.0 mm 0.00 in0.0 mm 0.00 in0.0 mm
01:15 AM 51.6°F10.9°C 23.4°F-4.8°C 33% Calm Calm -- 29.89 in1012.2 mb 0.00 in0.0 mm 0.00 in0.0 mm 0.00 in0.0 mm
01:20 AM 51.8°F11.0°C 23.6°F-4.7°C 33% Calm Calm -- 29.89 in1012.2 mb 0.00 in0.0 mm 0.00 in0.0 mm 0.00 in0.0 mm
01:25 AM 51.9°F11.1°C 23.0°F-5.0°C 32% Calm Calm -- 29.89 in1012.2 mb 0.00 in0.0 mm 0.00 in0.0 mm 0.00 in0.0 mm
01:30 AM 51.8°F11.0°C 23.6°F-4.7°C 33% Calm Calm -- 29.89 in1012.2 mb 0.00 in0.0 mm 0.00 in0.0 mm 0.00 in0.0 mm
01:35 AM 51.9°F11.1°C 23.7°F-4.6°C 33% 0.3 mph N0.5 kmh N 1.0 mph1.6 kmh 29.89 in1012.2 mb 0.00 in0.0 mm 0.00 in0.0 mm 0.00 in0.0 mm
01:40 AM 52.0°F11.1°C 23.1°F-4.9°C 32% 0.4 mph N0.6 kmh N 2.0 mph3.2 kmh 29.89 in1012.2 mb 0.00 in0.0 mm 0.00 in0.0 mm 0.00 in0.0 mm
02:00 AM 51.8°F11.0°C 22.9°F-5.1°C 32% Calm Calm 1.0 mph1.6 kmh 29.89 in1012.2 mb 0.00 in0.0 mm 0.00 in0.0 mm 0.00 in0.0 mm
02:05 AM 51.3°F10.7°C 23.2°F-4.9°C 33% Calm Calm 1.0 mph1.6 kmh 29.89 in1012.2 mb 0.00 in0.0 mm 0.00 in0.0 mm 0.00 in0.0 mm
02:10 AM 51.1°F10.6°C 23.7°F-4.6°C 34% Calm Calm 1.0 mph1.6 kmh 29.89 in1012.2 mb 0.00 in0.0 mm 0.00 in0.0 mm 0.00 in0.0 mm
02:15 AM 51.0°F10.6°C 23.6°F-4.7°C 34% Calm Calm 1.0 mph1.6 kmh 29.89 in1012.2 mb 0.00 in0.0 mm 0.00 in0.0 mm 0.00 in0.0 mm
02:20 AM 50.8°F10.4°C 23.5°F-4.7°C 34% Calm Calm 1.0 mph1.6 kmh 29.89 in1012.2 mb 0.00 in0.0 mm 0.00 in0.0 mm 0.00 in0.0 mm
02:25 AM 50.5°F10.3°C 23.2°F-4.9°C 34% Calm Calm 1.0 mph1.6 kmh 29.89 in1012.2 mb 0.00 in0.0 mm 0.00 in0.0 mm 0.00 in0.0 mm
02:30 AM 50.0°F10.0°C 23.4°F-4.8°C 35% Calm Calm -- 29.88 in1011.9 mb 0.00 in0.0 mm 0.00 in0.0 mm 0.00 in0.0 mm
02:35 AM 49.7°F9.8°C 23.8°F-4.6°C 36% Calm Calm -- 29.88 in1011.9 mb 0.00 in0.0 mm 0.00 in0.0 mm 0.00 in0.0 mm
02:40 AM 49.3°F9.6°C 23.5°F-4.7°C 36% Calm Calm -- 29.88 in1011.9 mb 0.00 in0.0 mm 0.00 in0.0 mm 0.00 in0.0 mm
02:45 AM 49.0°F9.4°C 23.2°F-4.9°C 36% Calm Calm -- 29.88 in1011.9 mb 0.00 in0.0 mm 0.00 in0.0 mm 0.00 in0.0 mm
02:50 AM 48.9°F9.4°C 23.8°F-4.6°C 37% Calm Calm -- 29.88 in1011.9 mb 0.00 in0.0 mm 0.00 in0.0 mm 0.00 in0.0 mm
02:55 AM 48.9°F9.4°C 23.8°F-4.6°C 37% Calm Calm -- 29.88 in1011.9 mb 0.00 in0.0 mm 0.00 in0.0 mm 0.00 in0.0 mm
03:00 AM 49.2°F9.6°C 23.4°F-4.8°C 36% Calm Calm -- 29.88 in1011.9 mb 0.00 in0.0 mm 0.00 in0.0 mm 0.00 in0.0 mm
03:05 AM 49.3°F9.6°C 23.5°F-4.7°C 36% Calm Calm -- 29.88 in1011.9 mb 0.00 in0.0 mm 0.00 in0.0 mm 0.00 in0.0 mm
03:10 AM 49.6°F9.8°C 23.8°F-4.6°C 36% Calm Calm -- 29.87 in1011.5 mb 0.00 in0.0 mm 0.00 in0.0 mm 0.00 in0.0 mm
03:15 AM 49.5°F9.7°C 23.7°F-4.6°C 36% Calm Calm -- 29.87 in1011.5 mb 0.00 in0.0 mm 0.00 in0.0 mm 0.00 in0.0 mm
03:20 AM 49.3°F9.6°C 24.1°F-4.4°C 37% Calm Calm -- 29.88 in1011.9 mb 0.00 in0.0 mm 0.00 in0.0 mm 0.00 in0.0 mm
03:35 AM 49.5°F9.7°C 23.7°F-4.6°C 36% Calm Calm 1.0 mph1.6 kmh 29.88 in1011.9 mb 0.00 in0.0 mm 0.00 in0.0 mm 0.00 in0.0 mm
03:40 AM 49.6°F9.8°C 23.8°F-4.6°C 36% Calm Calm 1.0 mph1.6 kmh 29.88 in1011.9 mb 0.00 in0.0 mm 0.00 in0.0 mm 0.00 in0.0 mm
03:45 AM 49.4°F9.7°C 24.2°F-4.3°C 37% Calm Calm -- 29.87 in1011.5 mb 0.00 in0.0 mm 0.00 in0.0 mm 0.00 in0.0 mm
03:50 AM 49.4°F9.7°C 24.2°F-4.3°C 37% Calm Calm -- 29.87 in1011.5 mb 0.00 in0.0 mm 0.00 in0.0 mm 0.00 in0.0 mm
03:55 AM 49.1°F9.5°C 24.0°F-4.4°C 37% Calm Calm -- 29.87 in1011.5 mb 0.00 in0.0 mm 0.00 in0.0 mm 0.00 in0.0 mm
04:00 AM 48.8°F9.3°C 23.7°F-4.6°C 37% Calm Calm -- 29.87 in1011.5 mb 0.00 in0.0 mm 0.00 in0.0 mm 0.00 in0.0 mm
04:05 AM 48.9°F9.4°C 24.4°F-4.2°C 38% Calm Calm -- 29.87 in1011.5 mb 0.00 in0.0 mm 0.00 in0.0 mm 0.00 in0.0 mm
04:10 AM 49.0°F9.4°C 23.9°F-4.5°C 37% Calm Calm -- 29.87 in1011.5 mb 0.00 in0.0 mm 0.00 in0.0 mm 0.00 in0.0 mm
04:15 AM 49.2°F9.6°C 24.1°F-4.4°C 37% Calm Calm -- 29.87 in1011.5 mb 0.00 in0.0 mm 0.00 in0.0 mm 0.00 in0.0 mm
04:35 AM 48.8°F9.3°C 24.3°F-4.3°C 38% Calm Calm -- 29.86 in1011.2 mb 0.00 in0.0 mm 0.00 in0.0 mm 0.00 in0.0 mm
04:40 AM 48.7°F9.3°C 24.2°F-4.3°C 38% Calm Calm -- 29.86 in1011.2 mb 0.00 in0.0 mm 0.00 in0.0 mm 0.00 in0.0 mm
04:45 AM 48.5°F9.2°C 24.1°F-4.4°C 38% Calm Calm -- 29.86 in1011.2 mb 0.00 in0.0 mm 0.00 in0.0 mm 0.00 in0.0 mm
04:50 AM 48.5°F9.2°C 24.1°F-4.4°C 38% Calm Calm -- 29.86 in1011.2 mb 0.00 in0.0 mm 0.00 in0.0 mm 0.00 in0.0 mm
04:55 AM 48.7°F9.3°C 24.2°F-4.3°C 38% Calm Calm -- 29.85 in1010.8 mb 0.00 in0.0 mm 0.00 in0.0 mm 0.00 in0.0 mm
05:00 AM 48.8°F9.3°C 24.3°F-4.3°C 38% Calm Calm -- 29.86 in1011.2 mb 0.00 in0.0 mm 0.00 in0.0 mm 0.00 in0.0 mm
05:05 AM 48.5°F9.2°C 24.1°F-4.4°C 38% Calm Calm -- 29.86 in1011.2 mb 0.00 in0.0 mm 0.00 in0.0 mm 0.00 in0.0 mm
05:10 AM 48.1°F8.9°C 24.3°F-4.3°C 39% Calm Calm -- 29.86 in1011.2 mb 0.00 in0.0 mm 0.00 in0.0 mm 0.00 in0.0 mm
05:15 AM 48.3°F9.1°C 24.5°F-4.2°C 39% Calm Calm -- 29.86 in1011.2 mb 0.00 in0.0 mm 0.00 in0.0 mm 0.00 in0.0 mm
05:20 AM 48.4°F9.1°C 24.6°F-4.1°C 39% Calm Calm -- 29.85 in1010.8 mb 0.00 in0.0 mm 0.00 in0.0 mm 0.00 in0.0 mm
05:25 AM 48.3°F9.1°C 24.5°F-4.2°C 39% Calm Calm -- 29.85 in1010.8 mb 0.00 in0.0 mm 0.00 in0.0 mm 0.00 in0.0 mm
05:30 AM 48.1°F8.9°C 24.9°F-3.9°C 40% Calm Calm -- 29.85 in1010.8 mb 0.00 in0.0 mm 0.00 in0.0 mm 0.00 in0.0 mm
05:35 AM 48.1°F8.9°C 24.9°F-3.9°C 40% Calm Calm -- 29.85 in1010.8 mb 0.00 in0.0 mm 0.00 in0.0 mm 0.00 in0.0 mm
05:40 AM 48.2°F9.0°C 25.0°F-3.9°C 40% Calm Calm -- 29.85 in1010.8 mb 0.00 in0.0 mm 0.00 in0.0 mm 0.00 in0.0 mm
05:45 AM 48.1°F8.9°C 24.9°F-3.9°C 40% Calm Calm -- 29.85 in1010.8 mb 0.00 in0.0 mm 0.00 in0.0 mm 0.00 in0.0 mm
05:50 AM 47.8°F8.8°C 24.7°F-4.1°C 40% Calm Calm -- 29.86 in1011.2 mb 0.00 in0.0 mm 0.00 in0.0 mm 0.00 in0.0 mm
05:55 AM 47.6°F8.7°C 24.5°F-4.2°C 40% Calm Calm -- 29.86 in1011.2 mb 0.00 in0.0 mm 0.00 in0.0 mm 0.00 in0.0 mm
06:00 AM 47.5°F8.6°C 24.4°F-4.2°C 40% Calm Calm -- 29.86 in1011.2 mb 0.00 in0.0 mm 0.00 in0.0 mm 0.00 in0.0 mm
06:05 AM 47.6°F8.7°C 24.5°F-4.2°C 40% Calm Calm -- 29.86 in1011.2 mb 0.00 in0.0 mm 0.00 in0.0 mm 0.00 in0.0 mm
06:10 AM 47.7°F8.7°C 24.6°F-4.1°C 40% Calm Calm -- 29.86 in1011.2 mb 0.00 in0.0 mm 0.00 in0.0 mm 0.00 in0.0 mm
06:15 AM 47.7°F8.7°C 24.6°F-4.1°C 40% Calm Calm -- 29.86 in1011.2 mb 0.00 in0.0 mm 0.00 in0.0 mm 0.00 in0.0 mm
06:20 AM 47.5°F8.6°C 24.4°F-4.2°C 40% Calm Calm -- 29.86 in1011.2 mb 0.00 in0.0 mm 0.00 in0.0 mm 0.00 in0.0 mm
06:25 AM 47.2°F8.4°C 24.1°F-4.4°C 40% Calm Calm -- 29.86 in1011.2 mb 0.00 in0.0 mm 0.00 in0.0 mm 0.00 in0.0 mm
06:30 AM 47.0°F8.3°C 24.5°F-4.2°C 41% Calm Calm -- 29.86 in1011.2 mb 0.00 in0.0 mm 0.00 in0.0 mm 0.00 in0.0 mm
06:35 AM 46.9°F8.3°C 24.4°F-4.2°C 41% Calm Calm -- 29.86 in1011.2 mb 0.00 in0.0 mm 0.00 in0.0 mm 0.00 in0.0 mm
06:40 AM 46.8°F8.2°C 24.4°F-4.2°C 41% Calm Calm -- 29.87 in1011.5 mb 0.00 in0.0 mm 0.00 in0.0 mm 0.00 in0.0 mm
06:45 AM 46.5°F8.1°C 24.1°F-4.4°C 41% Calm Calm -- 29.87 in1011.5 mb 0.00 in0.0 mm 0.00 in0.0 mm 0.00 in0.0 mm
06:50 AM 46.2°F7.9°C 24.4°F-4.2°C 42% Calm Calm -- 29.88 in1011.9 mb 0.00 in0.0 mm 0.00 in0.0 mm 0.00 in0.0 mm
06:55 AM 46.0°F7.8°C 24.2°F-4.3°C 42% Calm Calm -- 29.88 in1011.9 mb 0.00 in0.0 mm 0.00 in0.0 mm 0.00 in0.0 mm
07:00 AM 45.9°F7.7°C 24.1°F-4.4°C 42% Calm Calm -- 29.88 in1011.9 mb 0.00 in0.0 mm 0.00 in0.0 mm 0.00 in0.0 mm
07:05 AM 45.8°F7.7°C 24.0°F-4.4°C 42% Calm Calm -- 29.88 in1011.9 mb 0.00 in0.0 mm 0.00 in0.0 mm 0.00 in0.0 mm
07:10 AM 45.9°F7.7°C 24.1°F-4.4°C 42% Calm Calm -- 29.88 in1011.9 mb 0.00 in0.0 mm 0.00 in0.0 mm 0.00 in0.0 mm
07:15 AM 45.9°F7.7°C 24.1°F-4.4°C 42% Calm Calm -- 29.89 in1012.2 mb 0.00 in0.0 mm 0.00 in0.0 mm 0.00 in0.0 mm
07:20 AM 45.5°F7.5°C 24.3°F-4.3°C 43% Calm Calm -- 29.89 in1012.2 mb 0.00 in0.0 mm 0.00 in0.0 mm 0.00 in0.0 mm
07:25 AM 45.1°F7.3°C 24.0°F-4.4°C 43% Calm Calm -- 29.89 in1012.2 mb 0.00 in0.0 mm 0.00 in0.0 mm 0.00 in0.0 mm
07:30 AM 44.8°F7.1°C 23.7°F-4.6°C 43% Calm Calm -- 29.89 in1012.2 mb 0.00 in0.0 mm 0.00 in0.0 mm 0.00 in0.0 mm
07:35 AM 44.8°F7.1°C 24.2°F-4.3°C 44% Calm Calm -- 29.89 in1012.2 mb 0.00 in0.0 mm 0.00 in0.0 mm 0.00 in0.0 mm
07:40 AM 45.1°F7.3°C 24.0°F-4.4°C 43% Calm Calm -- 29.89 in1012.2 mb 0.00 in0.0 mm 0.00 in0.0 mm 0.00 in0.0 mm
07:45 AM 45.5°F7.5°C 23.8°F-4.6°C 42% Calm Calm -- 29.89 in1012.2 mb 0.00 in0.0 mm 0.00 in0.0 mm 0.00 in0.0 mm
07:50 AM 45.4°F7.4°C 23.7°F-4.6°C 42% Calm Calm -- 29.89 in1012.2 mb 0.00 in0.0 mm 0.00 in0.0 mm 0.00 in0.0 mm
07:55 AM 45.7°F7.6°C 23.9°F-4.5°C 42% Calm Calm -- 29.88 in1011.9 mb 0.00 in0.0 mm 0.00 in0.0 mm 0.00 in0.0 mm
08:00 AM 46.8°F8.2°C 24.4°F-4.2°C 41% Calm Calm -- 29.88 in1011.9 mb 0.00 in0.0 mm 0.00 in0.0 mm 0.00 in0.0 mm
08:05 AM 48.0°F8.9°C 23.6°F-4.7°C 38% Calm Calm -- 29.87 in1011.5 mb 0.00 in0.0 mm 0.00 in0.0 mm 0.00 in0.0 mm
08:10 AM 50.6°F10.3°C 24.0°F-4.4°C 35% Calm Calm -- 29.87 in1011.5 mb 0.00 in0.0 mm 0.00 in0.0 mm 0.00 in0.0 mm
08:15 AM 52.6°F11.4°C 23.6°F-4.7°C 32% 0.2 mph E0.3 kmh E 1.0 mph1.6 kmh 29.88 in1011.9 mb 0.00 in0.0 mm 0.00 in0.0 mm 0.00 in0.0 mm
08:20 AM 53.4°F11.9°C 24.3°F-4.3°C 32% 0.1 mph ENE0.2 kmh ENE 2.0 mph3.2 kmh 29.88 in1011.9 mb 0.00 in0.0 mm 0.00 in0.0 mm 0.00 in0.0 mm
08:25 AM 54.1°F12.3°C 24.1°F-4.4°C 31% Calm Calm 2.0 mph3.2 kmh 29.88 in1011.9 mb 0.00 in0.0 mm 0.00 in0.0 mm 0.00 in0.0 mm
08:30 AM 54.9°F12.7°C 24.1°F-4.4°C 30% 0.2 mph SE0.3 kmh SE 2.0 mph3.2 kmh 29.88 in1011.9 mb 0.00 in0.0 mm 0.00 in0.0 mm 0.00 in0.0 mm
08:35 AM 55.8°F13.2°C 23.2°F-4.9°C 28% 0.5 mph SE0.8 kmh SE 3.0 mph4.8 kmh 29.88 in1011.9 mb 0.00 in0.0 mm 0.00 in0.0 mm 0.00 in0.0 mm
08:40 AM 57.0°F13.9°C 24.2°F-4.3°C 28% 0.4 mph SE0.6 kmh SE 3.0 mph4.8 kmh 29.88 in1011.9 mb 0.00 in0.0 mm 0.00 in0.0 mm 0.00 in0.0 mm
08:45 AM 57.8°F14.3°C 23.1°F-4.9°C 26% 0.8 mph ESE1.3 kmh ESE 3.0 mph4.8 kmh 29.89 in1012.2 mb 0.00 in0.0 mm 0.00 in0.0 mm 0.00 in0.0 mm
08:50 AM 58.4°F14.7°C 23.7°F-4.6°C 26% 0.7 mph SE1.1 kmh SE 3.0 mph4.8 kmh 29.89 in1012.2 mb 0.00 in0.0 mm 0.00 in0.0 mm 0.00 in0.0 mm
08:55 AM 59.1°F15.1°C 23.3°F-4.8°C 25% 0.5 mph ESE0.8 kmh ESE 3.0 mph4.8 kmh 29.89 in1012.2 mb 0.00 in0.0 mm 0.00 in0.0 mm 0.00 in0.0 mm
09:00 AM 59.6°F15.3°C 23.7°F-4.6°C 25% 0.7 mph SE1.1 kmh SE 3.0 mph4.8 kmh 29.89 in1012.2 mb 0.00 in0.0 mm 0.00 in0.0 mm 0.00 in0.0 mm
09:05 AM 60.0°F15.6°C 24.1°F-4.4°C 25% 0.6 mph SSE1.0 kmh SSE 3.0 mph4.8 kmh 29.89 in1012.2 mb 0.00 in0.0 mm 0.00 in0.0 mm 0.00 in0.0 mm
09:10 AM 60.4°F15.8°C 24.4°F-4.2°C 25% 0.5 mph SE0.8 kmh SE 3.0 mph4.8 kmh 29.89 in1012.2 mb 0.00 in0.0 mm 0.00 in0.0 mm 0.00 in0.0 mm
09:15 AM 60.9°F16.1°C 23.9°F-4.5°C 24% 1.0 mph SE1.6 kmh SE 4.0 mph6.4 kmh 29.89 in1012.2 mb 0.00 in0.0 mm 0.00 in0.0 mm 0.00 in0.0 mm
09:20 AM 61.3°F16.3°C 23.2°F-4.9°C 23% 1.4 mph SE2.3 kmh SE 4.0 mph6.4 kmh 29.89 in1012.2 mb 0.00 in0.0 mm 0.00 in0.0 mm 0.00 in0.0 mm
09:25 AM 61.7°F16.5°C 22.5°F-5.3°C 22% 1.6 mph E2.6 kmh E 5.0 mph8.0 kmh 29.89 in1012.2 mb 0.00 in0.0 mm 0.00 in0.0 mm 0.00 in0.0 mm
09:30 AM 62.1°F16.7°C 23.9°F-4.5°C 23% 2.0 mph SE3.2 kmh SE 5.0 mph8.0 kmh 29.89 in1012.2 mb 0.00 in0.0 mm 0.00 in0.0 mm 0.00 in0.0 mm
09:35 AM 62.5°F16.9°C 23.1°F-4.9°C 22% 1.5 mph ESE2.4 kmh ESE 5.0 mph8.0 kmh 29.89 in1012.2 mb 0.00 in0.0 mm 0.00 in0.0 mm 0.00 in0.0 mm
09:40 AM 62.9°F17.2°C 23.5°F-4.7°C 22% 0.7 mph ESE1.1 kmh ESE 5.0 mph8.0 kmh 29.89 in1012.2 mb 0.00 in0.0 mm 0.00 in0.0 mm 0.00 in0.0 mm
09:45 AM 63.3°F17.4°C 23.8°F-4.6°C 22% 1.5 mph SE2.4 kmh SE 3.0 mph4.8 kmh 29.89 in1012.2 mb 0.00 in0.0 mm 0.00 in0.0 mm 0.00 in0.0 mm
09:50 AM 63.5°F17.5°C 24.0°F-4.4°C 22% 1.4 mph SE2.3 kmh SE 4.0 mph6.4 kmh 29.89 in1012.2 mb 0.00 in0.0 mm 0.00 in0.0 mm 0.00 in0.0 mm
09:55 AM 63.8°F17.7°C 24.2°F-4.3°C 22% 1.3 mph SSE2.1 kmh SSE 4.0 mph6.4 kmh 29.89 in1012.2 mb 0.00 in0.0 mm 0.00 in0.0 mm 0.00 in0.0 mm
10:00 AM 64.2°F17.9°C 23.5°F-4.7°C 21% 1.2 mph ESE1.9 kmh ESE 4.0 mph6.4 kmh 29.89 in1012.2 mb 0.00 in0.0 mm 0.00 in0.0 mm 0.00 in0.0 mm
10:05 AM 64.6°F18.1°C 23.8°F-4.6°C 21% 1.0 mph SE1.6 kmh SE 4.0 mph6.4 kmh 29.89 in1012.2 mb 0.00 in0.0 mm 0.00 in0.0 mm 0.00 in0.0 mm
10:10 AM 65.0°F18.3°C 24.1°F-4.4°C 21% 1.3 mph SE2.1 kmh SE 4.0 mph6.4 kmh 29.89 in1012.2 mb 0.00 in0.0 mm 0.00 in0.0 mm 0.00 in0.0 mm
10:15 AM 65.7°F18.7°C 25.8°F-3.4°C 22% 0.4 mph ESE0.6 kmh ESE 4.0 mph6.4 kmh 29.89 in1012.2 mb 0.00 in0.0 mm 0.00 in0.0 mm 0.00 in0.0 mm
10:20 AM 66.5°F19.2°C 25.4°F-3.7°C 21% 0.6 mph SSE1.0 kmh SSE 3.0 mph4.8 kmh 29.89 in1012.2 mb 0.00 in0.0 mm 0.00 in0.0 mm 0.00 in0.0 mm
10:25 AM 66.9°F19.4°C 25.7°F-3.5°C 21% 0.9 mph SSE1.4 kmh SSE 4.0 mph6.4 kmh 29.89 in1012.2 mb 0.00 in0.0 mm 0.00 in0.0 mm 0.00 in0.0 mm
10:30 AM 67.5°F19.7°C 25.0°F-3.9°C 20% 0.8 mph SE1.3 kmh SE 4.0 mph6.4 kmh 29.88 in1011.9 mb 0.00 in0.0 mm 0.00 in0.0 mm 0.00 in0.0 mm
10:35 AM 67.7°F19.8°C 25.2°F-3.8°C 20% 1.4 mph SE2.3 kmh SE 4.0 mph6.4 kmh 29.88 in1011.9 mb 0.00 in0.0 mm 0.00 in0.0 mm 0.00 in0.0 mm
10:40 AM 68.0°F20.0°C 25.4°F-3.7°C 20% 1.3 mph SE2.1 kmh SE 4.0 mph6.4 kmh 29.88 in1011.9 mb 0.00 in0.0 mm 0.00 in0.0 mm 0.00 in0.0 mm
10:45 AM 68.6°F20.3°C 25.9°F-3.4°C 20% 1.2 mph SSE1.9 kmh SSE 4.0 mph6.4 kmh 29.88 in1011.9 mb 0.00 in0.0 mm 0.00 in0.0 mm 0.00 in0.0 mm
10:50 AM 68.9°F20.5°C 24.9°F-3.9°C 19% 1.6 mph SE2.6 kmh SE 5.0 mph8.0 kmh 29.88 in1011.9 mb 0.00 in0.0 mm 0.00 in0.0 mm 0.00 in0.0 mm
10:55 AM 69.3°F20.7°C 25.3°F-3.7°C 19% 1.5 mph SSE2.4 kmh SSE 5.0 mph8.0 kmh 29.87 in1011.5 mb 0.00 in0.0 mm 0.00 in0.0 mm 0.00 in0.0 mm
11:00 AM 69.7°F20.9°C 25.6°F-3.6°C 19% 1.4 mph SSE2.3 kmh SSE 4.0 mph6.4 kmh 29.86 in1011.2 mb 0.00 in0.0 mm 0.00 in0.0 mm 0.00 in0.0 mm
11:05 AM 70.0°F21.1°C 24.5°F-4.2°C 18% 1.6 mph SE2.6 kmh SE 4.0 mph6.4 kmh 29.86 in1011.2 mb 0.00 in0.0 mm 0.00 in0.0 mm 0.00 in0.0 mm
11:10 AM 70.2°F21.2°C 24.7°F-4.1°C 18% 1.4 mph SSE2.3 kmh SSE 4.0 mph6.4 kmh 29.86 in1011.2 mb 0.00 in0.0 mm 0.00 in0.0 mm 0.00 in0.0 mm
11:15 AM 70.3°F21.3°C 26.1°F-3.3°C 19% 1.5 mph SSE2.4 kmh SSE 5.0 mph8.0 kmh 29.86 in1011.2 mb 0.00 in0.0 mm 0.00 in0.0 mm 0.00 in0.0 mm
11:20 AM 70.5°F21.4°C 25.0°F-3.9°C 18% 1.3 mph ENE2.1 kmh ENE 6.0 mph9.7 kmh 29.86 in1011.2 mb 0.00 in0.0 mm 0.00 in0.0 mm 0.00 in0.0 mm
11:25 AM 70.8°F21.6°C 26.5°F-3.1°C 19% 0.5 mph SSE0.8 kmh SSE 6.0 mph9.7 kmh 29.86 in1011.2 mb 0.00 in0.0 mm 0.00 in0.0 mm 0.00 in0.0 mm
11:30 AM 71.3°F21.8°C 26.9°F-2.8°C 19% 1.0 mph SSE1.6 kmh SSE 3.0 mph4.8 kmh 29.85 in1010.8 mb 0.00 in0.0 mm 0.00 in0.0 mm 0.00 in0.0 mm
11:35 AM 72.0°F22.2°C 26.2°F-3.2°C 18% 0.6 mph SSE1.0 kmh SSE 2.0 mph3.2 kmh 29.85 in1010.8 mb 0.00 in0.0 mm 0.00 in0.0 mm 0.00 in0.0 mm
11:40 AM 72.4°F22.4°C 26.5°F-3.1°C 18% 0.8 mph S1.3 kmh S 3.0 mph4.8 kmh 29.85 in1010.8 mb 0.00 in0.0 mm 0.00 in0.0 mm 0.00 in0.0 mm
11:45 AM 72.7°F22.6°C 26.7°F-2.9°C 18% 1.1 mph S1.8 kmh S 3.0 mph4.8 kmh 29.85 in1010.8 mb 0.00 in0.0 mm 0.00 in0.0 mm 0.00 in0.0 mm
11:50 AM 73.0°F22.8°C 27.0°F-2.8°C 18% 0.7 mph SSW1.1 kmh SSW 3.0 mph4.8 kmh 29.85 in1010.8 mb 0.00 in0.0 mm 0.00 in0.0 mm 0.00 in0.0 mm
11:55 AM 73.5°F23.1°C 28.7°F-1.8°C 19% 0.6 mph SSE1.0 kmh SSE 3.0 mph4.8 kmh 29.84 in1010.5 mb 0.00 in0.0 mm 0.00 in0.0 mm 0.00 in0.0 mm
12:00 PM 73.9°F23.3°C 27.7°F-2.4°C 18% 0.4 mph S0.6 kmh S 3.0 mph4.8 kmh 29.84 in1010.5 mb 0.00 in0.0 mm 0.00 in0.0 mm 0.00 in0.0 mm
12:05 PM 73.8°F23.2°C 26.3°F-3.2°C 17% 1.2 mph SE1.9 kmh SE 4.0 mph6.4 kmh 29.84 in1010.5 mb 0.00 in0.0 mm 0.00 in0.0 mm 0.00 in0.0 mm
12:10 PM 73.2°F22.9°C 27.2°F-2.7°C 18% 1.6 mph ENE2.6 kmh ENE 4.0 mph6.4 kmh 29.84 in1010.5 mb 0.00 in0.0 mm 0.00 in0.0 mm 0.00 in0.0 mm
12:15 PM 73.4°F23.0°C 27.3°F-2.6°C 18% 0.9 mph SE1.4 kmh SE 3.0 mph4.8 kmh 29.83 in1010.2 mb 0.00 in0.0 mm 0.00 in0.0 mm 0.00 in0.0 mm
12:20 PM 73.8°F23.2°C 27.6°F-2.4°C 18% 0.5 mph SE0.8 kmh SE 2.0 mph3.2 kmh 29.83 in1010.2 mb 0.00 in0.0 mm 0.00 in0.0 mm 0.00 in0.0 mm
12:25 PM 74.2°F23.4°C 26.6°F-3.0°C 17% 0.6 mph ESE1.0 kmh ESE 3.0 mph4.8 kmh 29.82 in1009.8 mb 0.00 in0.0 mm 0.00 in0.0 mm 0.00 in0.0 mm
12:30 PM 74.2°F23.4°C 28.0°F-2.2°C 18% 0.7 mph E1.1 kmh E 3.0 mph4.8 kmh 29.81 in1009.5 mb 0.00 in0.0 mm 0.00 in0.0 mm 0.00 in0.0 mm
12:35 PM 74.4°F23.6°C 28.1°F-2.2°C 18% 0.2 mph S0.3 kmh S 3.0 mph4.8 kmh 29.81 in1009.5 mb 0.00 in0.0 mm 0.00 in0.0 mm 0.00 in0.0 mm
12:40 PM 74.9°F23.8°C 27.1°F-2.7°C 17% 0.4 mph E0.6 kmh E 2.0 mph3.2 kmh 29.80 in1009.1 mb 0.00 in0.0 mm 0.00 in0.0 mm 0.00 in0.0 mm
12:45 PM 74.7°F23.7°C 27.0°F-2.8°C 17% 0.9 mph E1.4 kmh E 6.0 mph9.7 kmh 29.80 in1009.1 mb 0.00 in0.0 mm 0.00 in0.0 mm 0.00 in0.0 mm
12:50 PM 75.0°F23.9°C 27.2°F-2.7°C 17% 0.6 mph S1.0 kmh S 6.0 mph9.7 kmh 29.80 in1009.1 mb 0.00 in0.0 mm 0.00 in0.0 mm 0.00 in0.0 mm
12:55 PM 75.2°F24.0°C 27.4°F-2.6°C 17% 0.6 mph SW1.0 kmh SW 3.0 mph4.8 kmh 29.80 in1009.1 mb 0.00 in0.0 mm 0.00 in0.0 mm 0.00 in0.0 mm
01:00 PM 75.5°F24.2°C 26.2°F-3.2°C 16% 1.8 mph SSW2.9 kmh SSW 4.0 mph6.4 kmh 29.80 in1009.1 mb 0.00 in0.0 mm 0.00 in0.0 mm 0.00 in0.0 mm
01:05 PM 75.3°F24.1°C 27.5°F-2.5°C 17% 1.3 mph S2.1 kmh S 6.0 mph9.7 kmh 29.79 in1008.8 mb 0.00 in0.0 mm 0.00 in0.0 mm 0.00 in0.0 mm
01:10 PM 75.3°F24.1°C 26.0°F-3.3°C 16% 1.7 mph S2.7 kmh S 6.0 mph9.7 kmh 29.78 in1008.5 mb 0.00 in0.0 mm 0.00 in0.0 mm 0.00 in0.0 mm
01:15 PM 75.3°F24.1°C 26.0°F-3.3°C 16% 0.3 mph S0.5 kmh S 4.0 mph6.4 kmh 29.78 in1008.5 mb 0.00 in0.0 mm 0.00 in0.0 mm 0.00 in0.0 mm
01:20 PM 75.7°F24.3°C 26.3°F-3.2°C 16% 0.8 mph SSW1.3 kmh SSW 5.0 mph8.0 kmh 29.78 in1008.5 mb 0.00 in0.0 mm 0.00 in0.0 mm 0.00 in0.0 mm
01:25 PM 75.6°F24.2°C 27.7°F-2.4°C 17% 0.7 mph SW1.1 kmh SW 5.0 mph8.0 kmh 29.77 in1008.1 mb 0.00 in0.0 mm 0.00 in0.0 mm 0.00 in0.0 mm
01:30 PM 75.6°F24.2°C 26.2°F-3.2°C 16% 0.5 mph SW0.8 kmh SW 3.0 mph4.8 kmh 29.77 in1008.1 mb 0.00 in0.0 mm 0.00 in0.0 mm 0.00 in0.0 mm
01:35 PM 76.0°F24.4°C 28.0°F-2.2°C 17% 0.8 mph S1.3 kmh S 3.0 mph4.8 kmh 29.76 in1007.8 mb 0.00 in0.0 mm 0.00 in0.0 mm 0.00 in0.0 mm
01:40 PM 76.2°F24.6°C 28.2°F-2.1°C 17% 0.8 mph S1.3 kmh S 3.0 mph4.8 kmh 29.76 in1007.8 mb 0.00 in0.0 mm 0.00 in0.0 mm 0.00 in0.0 mm
01:45 PM 76.3°F24.6°C 28.3°F-2.1°C 17% 0.4 mph S0.6 kmh S 3.0 mph4.8 kmh 29.76 in1007.8 mb 0.00 in0.0 mm 0.00 in0.0 mm 0.00 in0.0 mm
01:50 PM 76.2°F24.6°C 26.7°F-2.9°C 16% 1.0 mph S1.6 kmh S 3.0 mph4.8 kmh 29.76 in1007.8 mb 0.00 in0.0 mm 0.00 in0.0 mm 0.00 in0.0 mm
01:55 PM 76.2°F24.6°C 26.7°F-2.9°C 16% 2.0 mph S3.2 kmh S 7.0 mph11.3 kmh 29.75 in1007.5 mb 0.00 in0.0 mm 0.00 in0.0 mm 0.00 in0.0 mm
02:00 PM 76.1°F24.5°C 26.6°F-3.0°C 16% 1.1 mph SSW1.8 kmh SSW 7.0 mph11.3 kmh 29.75 in1007.5 mb 0.00 in0.0 mm 0.00 in0.0 mm 0.00 in0.0 mm
02:05 PM 76.1°F24.5°C 28.1°F-2.2°C 17% 0.9 mph SW1.4 kmh SW 3.0 mph4.8 kmh 29.74 in1007.1 mb 0.00 in0.0 mm 0.00 in0.0 mm 0.00 in0.0 mm
02:10 PM 76.2°F24.6°C 26.7°F-2.9°C 16% 1.9 mph S3.1 kmh S 5.0 mph8.0 kmh 29.74 in1007.1 mb 0.00 in0.0 mm 0.00 in0.0 mm 0.00 in0.0 mm
02:15 PM 76.2°F24.6°C 26.7°F-2.9°C 16% 2.4 mph S3.9 kmh S 5.0 mph8.0 kmh 29.74 in1007.1 mb 0.00 in0.0 mm 0.00 in0.0 mm 0.00 in0.0 mm
02:20 PM 76.2°F24.6°C 26.7°F-2.9°C 16% 2.1 mph S3.4 kmh S 6.0 mph9.7 kmh 29.73 in1006.8 mb 0.00 in0.0 mm 0.00 in0.0 mm 0.00 in0.0 mm
02:25 PM 76.0°F24.4°C 26.6°F-3.0°C 16% 1.8 mph S2.9 kmh S 6.0 mph9.7 kmh 29.73 in1006.8 mb 0.00 in0.0 mm 0.00 in0.0 mm 0.00 in0.0 mm
02:30 PM 75.9°F24.4°C 26.5°F-3.1°C 16% 1.8 mph S2.9 kmh S 6.0 mph9.7 kmh 29.73 in1006.8 mb 0.00 in0.0 mm 0.00 in0.0 mm 0.00 in0.0 mm
02:35 PM 76.1°F24.5°C 26.6°F-3.0°C 16% 1.5 mph S2.4 kmh S 4.0 mph6.4 kmh 29.73 in1006.8 mb 0.00 in0.0 mm 0.00 in0.0 mm 0.00 in0.0 mm
02:40 PM 76.2°F24.6°C 26.7°F-2.9°C 16% 0.5 mph S0.8 kmh S 3.0 mph4.8 kmh 29.73 in1006.8 mb 0.00 in0.0 mm 0.00 in0.0 mm 0.00 in0.0 mm
02:45 PM 76.2°F24.6°C 26.7°F-2.9°C 16% 1.1 mph SSW1.8 kmh SSW 4.0 mph6.4 kmh 29.73 in1006.8 mb 0.00 in0.0 mm 0.00 in0.0 mm 0.00 in0.0 mm
02:50 PM 76.4°F24.7°C 28.4°F-2.0°C 17% 1.1 mph S1.8 kmh S 4.0 mph6.4 kmh 29.73 in1006.8 mb 0.00 in0.0 mm 0.00 in0.0 mm 0.00 in0.0 mm
02:55 PM 76.7°F24.8°C 25.6°F-3.6°C 15% 0.5 mph S0.8 kmh S 5.0 mph8.0 kmh 29.73 in1006.8 mb 0.00 in0.0 mm 0.00 in0.0 mm 0.00 in0.0 mm
03:00 PM 76.5°F24.7°C 27.0°F-2.8°C 16% 1.5 mph S2.4 kmh S 5.0 mph8.0 kmh 29.72 in1006.4 mb 0.00 in0.0 mm 0.00 in0.0 mm 0.00 in0.0 mm
03:05 PM 76.5°F24.7°C 27.0°F-2.8°C 16% 0.7 mph SSW1.1 kmh SSW 5.0 mph8.0 kmh 29.72 in1006.4 mb 0.00 in0.0 mm 0.00 in0.0 mm 0.00 in0.0 mm
03:10 PM 76.6°F24.8°C 27.0°F-2.8°C 16% 0.9 mph SSW1.4 kmh SSW 3.0 mph4.8 kmh 29.72 in1006.4 mb 0.00 in0.0 mm 0.00 in0.0 mm 0.00 in0.0 mm
03:15 PM 76.6°F24.8°C 27.0°F-2.8°C 16% 1.4 mph SSW2.3 kmh SSW 4.0 mph6.4 kmh 29.72 in1006.4 mb 0.00 in0.0 mm 0.00 in0.0 mm 0.00 in0.0 mm
03:20 PM 76.3°F24.6°C 28.3°F-2.1°C 17% 0.3 mph SW0.5 kmh SW 4.0 mph6.4 kmh 29.72 in1006.4 mb 0.00 in0.0 mm 0.00 in0.0 mm 0.00 in0.0 mm
03:25 PM 76.2°F24.6°C 26.7°F-2.9°C 16% 1.4 mph SSW2.3 kmh SSW 4.0 mph6.4 kmh 29.72 in1006.4 mb 0.00 in0.0 mm 0.00 in0.0 mm 0.00 in0.0 mm
03:30 PM 75.8°F24.3°C 27.9°F-2.3°C 17% 0.9 mph S1.4 kmh S 4.0 mph6.4 kmh 29.72 in1006.4 mb 0.00 in0.0 mm 0.00 in0.0 mm 0.00 in0.0 mm
03:35 PM 75.8°F24.3°C 27.9°F-2.3°C 17% 0.4 mph SW0.6 kmh SW 3.0 mph4.8 kmh 29.71 in1006.1 mb 0.00 in0.0 mm 0.00 in0.0 mm 0.00 in0.0 mm
03:40 PM 75.7°F24.3°C 26.3°F-3.2°C 16% 1.8 mph S2.9 kmh S 4.0 mph6.4 kmh 29.71 in1006.1 mb 0.00 in0.0 mm 0.00 in0.0 mm 0.00 in0.0 mm
03:45 PM 76.0°F24.4°C 28.0°F-2.2°C 17% 0.8 mph SSW1.3 kmh SSW 5.0 mph8.0 kmh 29.71 in1006.1 mb 0.00 in0.0 mm 0.00 in0.0 mm 0.00 in0.0 mm
03:50 PM 76.5°F24.7°C 27.0°F-2.8°C 16% 1.1 mph S1.8 kmh S 5.0 mph8.0 kmh 29.71 in1006.1 mb 0.00 in0.0 mm 0.00 in0.0 mm 0.00 in0.0 mm
03:55 PM 76.5°F24.7°C 27.0°F-2.8°C 16% 1.7 mph S2.7 kmh S 4.0 mph6.4 kmh 29.71 in1006.1 mb 0.00 in0.0 mm 0.00 in0.0 mm 0.00 in0.0 mm
04:00 PM 76.6°F24.8°C 27.0°F-2.8°C 16% 0.8 mph SSW1.3 kmh SSW 4.0 mph6.4 kmh 29.71 in1006.1 mb 0.00 in0.0 mm 0.00 in0.0 mm 0.00 in0.0 mm
04:05 PM 76.7°F24.8°C 27.1°F-2.7°C 16% 1.8 mph SSW2.9 kmh SSW 4.0 mph6.4 kmh 29.71 in1006.1 mb 0.00 in0.0 mm 0.00 in0.0 mm 0.00 in0.0 mm
04:10 PM 76.8°F24.9°C 25.6°F-3.6°C 15% 1.5 mph S2.4 kmh S 8.0 mph12.9 kmh 29.70 in1005.8 mb 0.00 in0.0 mm 0.00 in0.0 mm 0.00 in0.0 mm
04:15 PM 76.7°F24.8°C 27.1°F-2.7°C 16% 1.5 mph SSW2.4 kmh SSW 8.0 mph12.9 kmh 29.70 in1005.8 mb 0.00 in0.0 mm 0.00 in0.0 mm 0.00 in0.0 mm
04:20 PM 77.0°F25.0°C 27.4°F-2.6°C 16% 0.8 mph SSW1.3 kmh SSW 5.0 mph8.0 kmh 29.70 in1005.8 mb 0.00 in0.0 mm 0.00 in0.0 mm 0.00 in0.0 mm
04:25 PM 76.6°F24.8°C 27.0°F-2.8°C 16% 1.7 mph SSW2.7 kmh SSW 5.0 mph8.0 kmh 29.70 in1005.8 mb 0.00 in0.0 mm 0.00 in0.0 mm 0.00 in0.0 mm
04:30 PM 76.9°F24.9°C 27.3°F-2.6°C 16% 1.0 mph SSW1.6 kmh SSW 5.0 mph8.0 kmh 29.70 in1005.8 mb 0.00 in0.0 mm 0.00 in0.0 mm 0.00 in0.0 mm
04:35 PM 76.9°F24.9°C 25.7°F-3.5°C 15% 1.0 mph S1.6 kmh S 3.0 mph4.8 kmh 29.70 in1005.8 mb 0.00 in0.0 mm 0.00 in0.0 mm 0.00 in0.0 mm
04:40 PM 76.7°F24.8°C 27.1°F-2.7°C 16% 0.9 mph S1.4 kmh S 4.0 mph6.4 kmh 29.70 in1005.8 mb 0.00 in0.0 mm 0.00 in0.0 mm 0.00 in0.0 mm
04:45 PM 76.5°F24.7°C 27.0°F-2.8°C 16% 1.1 mph SW1.8 kmh SW 4.0 mph6.4 kmh 29.69 in1005.4 mb 0.00 in0.0 mm 0.00 in0.0 mm 0.00 in0.0 mm
04:50 PM 75.9°F24.4°C 26.5°F-3.1°C 16% 0.9 mph SSW1.4 kmh SSW 4.0 mph6.4 kmh 29.70 in1005.8 mb 0.00 in0.0 mm 0.00 in0.0 mm 0.00 in0.0 mm
04:55 PM 75.9°F24.4°C 26.5°F-3.1°C 16% Calm Calm 4.0 mph6.4 kmh 29.69 in1005.4 mb 0.00 in0.0 mm 0.00 in0.0 mm 0.00 in0.0 mm
05:00 PM 76.1°F24.5°C 26.6°F-3.0°C 16% 0.9 mph SSW1.4 kmh SSW 3.0 mph4.8 kmh 29.69 in1005.4 mb 0.00 in0.0 mm 0.00 in0.0 mm 0.00 in0.0 mm
05:05 PM 76.1°F24.5°C 26.6°F-3.0°C 16% 0.5 mph SW0.8 kmh SW 3.0 mph4.8 kmh 29.69 in1005.4 mb 0.00 in0.0 mm 0.00 in0.0 mm 0.00 in0.0 mm
05:10 PM 76.1°F24.5°C 26.6°F-3.0°C 16% 0.2 mph SSW0.3 kmh SSW 3.0 mph4.8 kmh 29.69 in1005.4 mb 0.00 in0.0 mm 0.00 in0.0 mm 0.00 in0.0 mm
05:15 PM 76.0°F24.4°C 26.6°F-3.0°C 16% 0.1 mph SW0.2 kmh SW 1.0 mph1.6 kmh 29.69 in1005.4 mb 0.00 in0.0 mm 0.00 in0.0 mm 0.00 in0.0 mm
05:20 PM 75.7°F24.3°C 26.3°F-3.2°C 16% 0.3 mph SW0.5 kmh SW 2.0 mph3.2 kmh 29.69 in1005.4 mb 0.00 in0.0 mm 0.00 in0.0 mm 0.00 in0.0 mm
05:25 PM 75.2°F24.0°C 25.9°F-3.4°C 16% 0.1 mph SW0.2 kmh SW 2.0 mph3.2 kmh 29.69 in1005.4 mb 0.00 in0.0 mm 0.00 in0.0 mm 0.00 in0.0 mm
05:30 PM 74.9°F23.8°C 27.1°F-2.7°C 17% Calm Calm 1.0 mph1.6 kmh 29.69 in1005.4 mb 0.00 in0.0 mm 0.00 in0.0 mm 0.00 in0.0 mm
05:35 PM 75.1°F23.9°C 25.8°F-3.4°C 16% Calm Calm 1.0 mph1.6 kmh 29.69 in1005.4 mb 0.00 in0.0 mm 0.00 in0.0 mm 0.00 in0.0 mm
05:40 PM 74.7°F23.7°C 25.5°F-3.6°C 16% Calm Calm -- 29.69 in1005.4 mb 0.00 in0.0 mm 0.00 in0.0 mm 0.00 in0.0 mm
05:45 PM 74.4°F23.6°C 26.7°F-2.9°C 17% Calm Calm -- 29.69 in1005.4 mb 0.00 in0.0 mm 0.00 in0.0 mm 0.00 in0.0 mm
05:50 PM 73.9°F23.3°C 27.7°F-2.4°C 18% Calm Calm -- 29.69 in1005.4 mb 0.00 in0.0 mm 0.00 in0.0 mm 0.00 in0.0 mm
05:55 PM 72.9°F22.7°C 26.9°F-2.8°C 18% Calm Calm -- 29.69 in1005.4 mb 0.00 in0.0 mm 0.00 in0.0 mm 0.00 in0.0 mm
06:00 PM 71.8°F22.1°C 27.3°F-2.6°C 19% Calm Calm -- 29.69 in1005.4 mb 0.00 in0.0 mm 0.00 in0.0 mm 0.00 in0.0 mm
06:05 PM 70.7°F21.5°C 26.4°F-3.1°C 19% Calm Calm -- 29.69 in1005.4 mb 0.00 in0.0 mm 0.00 in0.0 mm 0.00 in0.0 mm
06:10 PM 69.7°F20.9°C 26.8°F-2.9°C 20% Calm Calm -- 29.69 in1005.4 mb 0.00 in0.0 mm 0.00 in0.0 mm 0.00 in0.0 mm
06:15 PM 69.1°F20.6°C 27.5°F-2.5°C 21% Calm Calm -- 29.70 in1005.8 mb 0.00 in0.0 mm 0.00 in0.0 mm 0.00 in0.0 mm
06:20 PM 68.4°F20.2°C 26.9°F-2.8°C 21% Calm Calm -- 29.70 in1005.8 mb 0.00 in0.0 mm 0.00 in0.0 mm 0.00 in0.0 mm
06:25 PM 67.7°F19.8°C 26.4°F-3.1°C 21% Calm Calm -- 29.69 in1005.4 mb 0.00 in0.0 mm 0.00 in0.0 mm 0.00 in0.0 mm
06:30 PM 66.7°F19.3°C 26.7°F-2.9°C 22% Calm Calm -- 29.70 in1005.8 mb 0.00 in0.0 mm 0.00 in0.0 mm 0.00 in0.0 mm
06:35 PM 65.9°F18.8°C 27.1°F-2.7°C 23% Calm Calm -- 29.70 in1005.8 mb 0.00 in0.0 mm 0.00 in0.0 mm 0.00 in0.0 mm
06:40 PM 65.2°F18.4°C 27.5°F-2.5°C 24% Calm Calm -- 29.70 in1005.8 mb 0.00 in0.0 mm 0.00 in0.0 mm 0.00 in0.0 mm
06:45 PM 64.4°F18.0°C 27.8°F-2.3°C 25% Calm Calm -- 29.70 in1005.8 mb 0.00 in0.0 mm 0.00 in0.0 mm 0.00 in0.0 mm
06:50 PM 63.4°F17.4°C 27.9°F-2.3°C 26% Calm Calm -- 29.70 in1005.8 mb 0.00 in0.0 mm 0.00 in0.0 mm 0.00 in0.0 mm
06:55 PM 62.4°F16.9°C 27.1°F-2.7°C 26% Calm Calm -- 29.70 in1005.8 mb 0.00 in0.0 mm 0.00 in0.0 mm 0.00 in0.0 mm
07:00 PM 61.6°F16.4°C 28.2°F-2.1°C 28% Calm Calm -- 29.70 in1005.8 mb 0.00 in0.0 mm 0.00 in0.0 mm 0.00 in0.0 mm
07:05 PM 61.3°F16.3°C 27.9°F-2.3°C 28% Calm Calm -- 29.71 in1006.1 mb 0.00 in0.0 mm 0.00 in0.0 mm 0.00 in0.0 mm
07:10 PM 61.3°F16.3°C 27.9°F-2.3°C 28% Calm Calm -- 29.71 in1006.1 mb 0.00 in0.0 mm 0.00 in0.0 mm 0.00 in0.0 mm
07:15 PM 60.9°F16.1°C 27.6°F-2.4°C 28% Calm Calm -- 29.72 in1006.4 mb 0.00 in0.0 mm 0.00 in0.0 mm 0.00 in0.0 mm
07:20 PM 60.6°F15.9°C 28.2°F-2.1°C 29% Calm Calm -- 29.72 in1006.4 mb 0.00 in0.0 mm 0.00 in0.0 mm 0.00 in0.0 mm
07:25 PM 60.2°F15.7°C 27.8°F-2.3°C 29% Calm Calm -- 29.72 in1006.4 mb 0.00 in0.0 mm 0.00 in0.0 mm 0.00 in0.0 mm
07:30 PM 59.8°F15.4°C 28.3°F-2.1°C 30% Calm Calm -- 29.72 in1006.4 mb 0.00 in0.0 mm 0.00 in0.0 mm 0.00 in0.0 mm
07:35 PM 60.1°F15.6°C 27.7°F-2.4°C 29% Calm Calm -- 29.72 in1006.4 mb 0.00 in0.0 mm 0.00 in0.0 mm 0.00 in0.0 mm
07:40 PM 60.2°F15.7°C 27.8°F-2.3°C 29% Calm Calm -- 29.73 in1006.8 mb 0.00 in0.0 mm 0.00 in0.0 mm 0.00 in0.0 mm
07:45 PM 60.7°F15.9°C 27.4°F-2.6°C 28% Calm Calm -- 29.73 in1006.8 mb 0.00 in0.0 mm 0.00 in0.0 mm 0.00 in0.0 mm
07:50 PM 61.2°F16.2°C 27.8°F-2.3°C 28% Calm Calm -- 29.73 in1006.8 mb 0.00 in0.0 mm 0.00 in0.0 mm 0.00 in0.0 mm
07:55 PM 61.6°F16.4°C 28.2°F-2.1°C 28% Calm Calm -- 29.73 in1006.8 mb 0.00 in0.0 mm 0.00 in0.0 mm 0.00 in0.0 mm
08:00 PM 61.7°F16.5°C 27.4°F-2.6°C 27% Calm Calm -- 29.73 in1006.8 mb 0.00 in0.0 mm 0.00 in0.0 mm 0.00 in0.0 mm
08:05 PM 61.7°F16.5°C 27.4°F-2.6°C 27% Calm Calm -- 29.73 in1006.8 mb 0.00 in0.0 mm 0.00 in0.0 mm 0.00 in0.0 mm
08:10 PM 61.7°F16.5°C 26.5°F-3.1°C 26% Calm Calm -- 29.73 in1006.8 mb 0.00 in0.0 mm 0.00 in0.0 mm 0.00 in0.0 mm
08:15 PM 61.7°F16.5°C 26.5°F-3.1°C 26% Calm Calm -- 29.73 in1006.8 mb 0.00 in0.0 mm 0.00 in0.0 mm 0.00 in0.0 mm
08:20 PM 61.5°F16.4°C 25.4°F-3.7°C 25% Calm Calm -- 29.74 in1007.1 mb 0.00 in0.0 mm 0.00 in0.0 mm 0.00 in0.0 mm
08:25 PM 61.4°F16.3°C 25.3°F-3.7°C 25% Calm Calm -- 29.74 in1007.1 mb 0.00 in0.0 mm 0.00 in0.0 mm 0.00 in0.0 mm
08:30 PM 61.4°F16.3°C 25.3°F-3.7°C 25% Calm Calm -- 29.74 in1007.1 mb 0.00 in0.0 mm 0.00 in0.0 mm 0.00 in0.0 mm
08:35 PM 61.6°F16.4°C 25.4°F-3.7°C 25% 0.1 mph N0.2 kmh N 1.0 mph1.6 kmh 29.75 in1007.5 mb 0.00 in0.0 mm 0.00 in0.0 mm 0.00 in0.0 mm
08:40 PM 61.6°F16.4°C 25.4°F-3.7°C 25% 0.1 mph N0.2 kmh N 1.0 mph1.6 kmh 29.75 in1007.5 mb 0.00 in0.0 mm 0.00 in0.0 mm 0.00 in0.0 mm
08:45 PM 61.6°F16.4°C 25.4°F-3.7°C 25% 0.1 mph NNE0.2 kmh NNE 1.0 mph1.6 kmh 29.75 in1007.5 mb 0.00 in0.0 mm 0.00 in0.0 mm 0.00 in0.0 mm
08:50 PM 61.5°F16.4°C 26.3°F-3.2°C 26% Calm Calm 1.0 mph1.6 kmh 29.75 in1007.5 mb 0.00 in0.0 mm 0.00 in0.0 mm 0.00 in0.0 mm
08:55 PM 61.4°F16.3°C 26.2°F-3.2°C 26% Calm Calm 1.0 mph1.6 kmh 29.75 in1007.5 mb 0.00 in0.0 mm 0.00 in0.0 mm 0.00 in0.0 mm
09:00 PM 61.2°F16.2°C 26.0°F-3.3°C 26% Calm Calm 1.0 mph1.6 kmh 29.75 in1007.5 mb 0.00 in0.0 mm 0.00 in0.0 mm 0.00 in0.0 mm
09:05 PM 61.2°F16.2°C 26.0°F-3.3°C 26% Calm Calm 1.0 mph1.6 kmh 29.75 in1007.5 mb 0.00 in0.0 mm 0.00 in0.0 mm 0.00 in0.0 mm
09:10 PM 61.1°F16.2°C 26.9°F-2.8°C 27% Calm Calm 1.0 mph1.6 kmh 29.76 in1007.8 mb 0.00 in0.0 mm 0.00 in0.0 mm 0.00 in0.0 mm
09:15 PM 60.9°F16.1°C 26.7°F-2.9°C 27% Calm Calm -- 29.75 in1007.5 mb 0.00 in0.0 mm 0.00 in0.0 mm 0.00 in0.0 mm
09:20 PM 60.6°F15.9°C 26.4°F-3.1°C 27% Calm Calm -- 29.76 in1007.8 mb 0.00 in0.0 mm 0.00 in0.0 mm 0.00 in0.0 mm
09:25 PM 60.1°F15.6°C 26.0°F-3.3°C 27% Calm Calm -- 29.76 in1007.8 mb 0.00 in0.0 mm 0.00 in0.0 mm 0.00 in0.0 mm
09:30 PM 59.7°F15.4°C 26.5°F-3.1°C 28% Calm Calm -- 29.76 in1007.8 mb 0.00 in0.0 mm 0.00 in0.0 mm 0.00 in0.0 mm
09:35 PM 59.6°F15.3°C 27.3°F-2.6°C 29% Calm Calm -- 29.77 in1008.1 mb 0.00 in0.0 mm 0.00 in0.0 mm 0.00 in0.0 mm
09:40 PM 59.7°F15.4°C 27.4°F-2.6°C 29% 0.2 mph NNW0.3 kmh NNW 2.0 mph3.2 kmh 29.77 in1008.1 mb 0.00 in0.0 mm 0.00 in0.0 mm 0.00 in0.0 mm
09:45 PM 59.8°F15.4°C 27.5°F-2.5°C 29% Calm Calm 2.0 mph3.2 kmh 29.77 in1008.1 mb 0.00 in0.0 mm 0.00 in0.0 mm 0.00 in0.0 mm
09:50 PM 59.8°F15.4°C 27.5°F-2.5°C 29% Calm Calm -- 29.77 in1008.1 mb 0.00 in0.0 mm 0.00 in0.0 mm 0.00 in0.0 mm
09:55 PM 59.8°F15.4°C 27.5°F-2.5°C 29% Calm Calm 1.0 mph1.6 kmh 29.77 in1008.1 mb 0.00 in0.0 mm 0.00 in0.0 mm 0.00 in0.0 mm
10:00 PM 59.8°F15.4°C 27.5°F-2.5°C 29% Calm Calm 1.0 mph1.6 kmh 29.77 in1008.1 mb 0.00 in0.0 mm 0.00 in0.0 mm 0.00 in0.0 mm
10:05 PM 60.1°F15.6°C 27.7°F-2.4°C 29% Calm Calm 1.0 mph1.6 kmh 29.77 in1008.1 mb 0.00 in0.0 mm 0.00 in0.0 mm 0.00 in0.0 mm
10:10 PM 60.0°F15.6°C 27.7°F-2.4°C 29% Calm Calm -- 29.78 in1008.5 mb 0.00 in0.0 mm 0.00 in0.0 mm 0.00 in0.0 mm
10:15 PM 59.6°F15.3°C 28.1°F-2.2°C 30% Calm Calm -- 29.78 in1008.5 mb 0.00 in0.0 mm 0.00 in0.0 mm 0.00 in0.0 mm
10:20 PM 59.2°F15.1°C 27.8°F-2.3°C 30% Calm Calm -- 29.78 in1008.5 mb 0.00 in0.0 mm 0.00 in0.0 mm 0.00 in0.0 mm
10:25 PM 58.7°F14.8°C 28.2°F-2.1°C 31% Calm Calm -- 29.78 in1008.5 mb 0.00 in0.0 mm 0.00 in0.0 mm 0.00 in0.0 mm
10:30 PM 58.3°F14.6°C 27.0°F-2.8°C 30% Calm Calm -- 29.79 in1008.8 mb 0.00 in0.0 mm 0.00 in0.0 mm 0.00 in0.0 mm
10:35 PM 58.0°F14.4°C 27.5°F-2.5°C 31% Calm Calm -- 29.79 in1008.8 mb 0.00 in0.0 mm 0.00 in0.0 mm 0.00 in0.0 mm
10:40 PM 58.2°F14.6°C 27.7°F-2.4°C 31% 0.1 mph W0.2 kmh W 1.0 mph1.6 kmh 29.78 in1008.5 mb 0.00 in0.0 mm 0.00 in0.0 mm 0.00 in0.0 mm
10:45 PM 59.1°F15.1°C 27.7°F-2.4°C 30% 0.1 mph WSW0.2 kmh WSW 1.0 mph1.6 kmh 29.78 in1008.5 mb 0.00 in0.0 mm 0.00 in0.0 mm 0.00 in0.0 mm
10:50 PM 60.3°F15.7°C 27.1°F-2.7°C 28% 0.1 mph WSW0.2 kmh WSW 1.0 mph1.6 kmh 29.79 in1008.8 mb 0.00 in0.0 mm 0.00 in0.0 mm 0.00 in0.0 mm
10:55 PM 61.3°F16.3°C 27.0°F-2.8°C 27% Calm Calm 1.0 mph1.6 kmh 29.79 in1008.8 mb 0.00 in0.0 mm 0.00 in0.0 mm 0.00 in0.0 mm
11:00 PM 61.9°F16.6°C 27.6°F-2.4°C 27% 0.1 mph SW0.2 kmh SW 2.0 mph3.2 kmh 29.79 in1008.8 mb 0.00 in0.0 mm 0.00 in0.0 mm 0.00 in0.0 mm
11:05 PM 62.1°F16.7°C 26.8°F-2.9°C 26% 0.1 mph SW0.2 kmh SW 2.0 mph3.2 kmh 29.79 in1008.8 mb 0.00 in0.0 mm 0.00 in0.0 mm 0.00 in0.0 mm
11:10 PM 62.2°F16.8°C 26.9°F-2.8°C 26% Calm Calm 1.0 mph1.6 kmh 29.80 in1009.1 mb 0.00 in0.0 mm 0.00 in0.0 mm 0.00 in0.0 mm
11:15 PM 62.2°F16.8°C 26.9°F-2.8°C 26% 0.1 mph WSW0.2 kmh WSW 1.0 mph1.6 kmh 29.80 in1009.1 mb 0.00 in0.0 mm 0.00 in0.0 mm 0.00 in0.0 mm
11:20 PM 62.2°F16.8°C 26.9°F-2.8°C 26% 0.2 mph WSW0.3 kmh WSW 3.0 mph4.8 kmh 29.80 in1009.1 mb 0.00 in0.0 mm 0.00 in0.0 mm 0.00 in0.0 mm
11:25 PM 62.6°F17.0°C 26.3°F-3.2°C 25% 0.1 mph SSE0.2 kmh SSE 3.0 mph4.8 kmh 29.81 in1009.5 mb 0.00 in0.0 mm 0.00 in0.0 mm 0.00 in0.0 mm
11:30 PM 62.9°F17.2°C 27.5°F-2.5°C 26% 0.3 mph WNW0.5 kmh WNW 2.0 mph3.2 kmh 29.81 in1009.5 mb 0.00 in0.0 mm 0.00 in0.0 mm 0.00 in0.0 mm
11:35 PM 63.0°F17.2°C 27.6°F-2.4°C 26% 0.4 mph WSW0.6 kmh WSW 3.0 mph4.8 kmh 29.81 in1009.5 mb 0.00 in0.0 mm 0.00 in0.0 mm 0.00 in0.0 mm
11:40 PM 63.1°F17.3°C 27.7°F-2.4°C 26% 0.2 mph S0.3 kmh S 3.0 mph4.8 kmh 29.81 in1009.5 mb 0.00 in0.0 mm 0.00 in0.0 mm 0.00 in0.0 mm
11:45 PM 63.1°F17.3°C 27.7°F-2.4°C 26% 0.3 mph WSW0.5 kmh WSW 1.0 mph1.6 kmh 29.81 in1009.5 mb 0.00 in0.0 mm 0.00 in0.0 mm 0.00 in0.0 mm
11:50 PM 62.9°F17.2°C 27.5°F-2.5°C 26% 0.2 mph NW0.3 kmh NW 1.0 mph1.6 kmh 29.81 in1009.5 mb 0.00 in0.0 mm 0.00 in0.0 mm 0.00 in0.0 mm
11:55 PM 62.5°F16.9°C 27.2°F-2.7°C 26% Calm Calm 1.0 mph1.6 kmh 29.81 in1009.5 mb 0.00 in0.0 mm 0.00 in0.0 mm 0.00 in0.0 mm